Time;durP1;ratioP1;P1;durP2;ratioP2;P2;SDS_P1;SDS_P2;PMS_P1;PMS_P2;Temp;Humidity;BMP_temperature;BMP_pressure;BME280_temperature;BME280_humidity;BME280_pressure;Samples;Min_cycle;Max_cycle;Signal;HPM_P1;HPM_P2
2021/08/07 00:00:05;;;;;;;4.30;1.90;;;;;;;;;;4940057;29;20035;-89
2021/08/07 00:02:31;;;;;;;6.25;1.98;;;;;;;;;;4939711;29;20031;-90
2021/08/07 00:04:57;;;;;;;4.63;1.75;;;;;;;;;;4951098;29;20460;-90
2021/08/07 00:07:26;;;;;;;4.45;1.55;;;;;;;;;;4948011;29;20024;-87
2021/08/07 00:09:52;;;;;;;4.28;2.30;;;;;;;;;;4938041;29;20025;-90
2021/08/07 00:12:19;;;;;;;3.83;2.30;;;;;;;;;;4938923;29;20043;-93
2021/08/07 00:14:45;;;;;;;3.72;2.00;;;;;;;;;;4942948;29;20046;-96
2021/08/07 00:17:11;;;;;;;4.05;2.15;;;;;;;;;;4938317;29;20038;-87
2021/08/07 00:19:37;;;;;;;7.57;2.17;;;;;;;;;;4937574;29;20024;-88
2021/08/07 00:22:05;;;;;;;4.25;1.98;;;;;;;;;;4937335;29;20032;-86
2021/08/07 00:24:31;;;;;;;3.92;1.98;;;;;;;;;;4937903;29;20392;-88
2021/08/07 00:26:57;;;;;;;6.43;2.10;;;;;;;;;;4937004;29;20024;-88
2021/08/07 00:29:23;;;;;;;4.72;2.22;;;;;;;;;;4937379;29;20032;-88
2021/08/07 00:31:49;;;;;;;5.57;2.30;;;;;;;;;;4939191;29;20035;-85
2021/08/07 00:34:15;;;;;;;4.93;1.90;;;;;;;;;;4939106;29;20166;-92
2021/08/07 00:36:41;;;;;;;4.60;1.73;;;;;;;;;;4938235;29;20063;-90
2021/08/07 00:39:07;;;;;;;3.97;1.73;;;;;;;;;;4937243;29;20052;-88
2021/08/07 00:41:34;;;;;;;7.65;1.88;;;;;;;;;;4937134;29;20039;-85
2021/08/07 00:44:00;;;;;;;4.80;1.85;;;;;;;;;;4937030;29;20023;-89
2021/08/07 00:46:26;;;;;;;8.48;2.05;;;;;;;;;;4937643;29;20368;-85
2021/08/07 00:48:53;;;;;;;3.22;1.70;;;;;;;;;;4939052;29;20039;-87
2021/08/07 00:51:19;;;;;;;6.82;2.20;;;;;;;;;;4936958;29;20056;-96
2021/08/07 00:53:46;;;;;;;3.83;1.70;;;;;;;;;;4944291;29;20528;-90
2021/08/07 00:56:12;;;;;;;3.17;1.80;;;;;;;;;;4937297;29;20028;-90
2021/08/07 00:58:38;;;;;;;5.57;2.17;;;;;;;;;;4939194;29;20074;-91
2021/08/07 01:01:07;;;;;;;3.28;1.80;;;;;;;;;;4937274;29;20484;-95
2021/08/07 01:03:39;;;;;;;6.88;2.10;;;;;;;;;;4937241;29;20059;-88
2021/08/07 01:06:18;;;;;;;5.07;2.17;;;;;;;;;;4938444;29;20027;-90
2021/08/07 01:08:48;;;;;;;6.47;2.33;;;;;;;;;;4937752;29;20023;-86
2021/08/07 01:11:14;;;;;;;3.95;1.80;;;;;;;;;;4936973;29;20046;-91
2021/08/07 01:13:43;;;;;;;4.45;2.00;;;;;;;;;;4940011;29;20024;-96
2021/08/07 01:16:17;;;;;;;2.85;1.48;;;;;;;;;;4945983;29;20104;-96
2021/08/07 01:18:44;;;;;;;2.60;1.60;;;;;;;;;;4945971;29;20507;-96
2021/08/07 01:21:16;;;;;;;3.05;1.50;;;;;;;;;;4940670;29;20028;-93
2021/08/07 01:23:51;;;;;;;7.63;1.70;;;;;;;;;;4940594;29;20080;-93
2021/08/07 01:26:32;;;;;;;3.30;1.40;;;;;;;;;;4940059;29;20040;-96
2021/08/07 01:28:59;;;;;;;3.05;1.35;;;;;;;;;;4937049;29;20032;-89
2021/08/07 01:31:25;;;;;;;3.33;1.25;;;;;;;;;;4939186;29;20054;-91
2021/08/07 01:33:52;;;;;;;2.78;1.40;;;;;;;;;;4940258;29;20042;-91
2021/08/07 01:36:18;;;;;;;3.15;1.20;;;;;;;;;;4940032;29;20031;-90
2021/08/07 01:38:45;;;;;;;2.92;1.33;;;;;;;;;;4936184;29;20028;-91
2021/08/07 01:41:19;;;;;;;2.20;1.10;;;;;;;;;;4938883;29;20047;-95
2021/08/07 01:43:46;;;;;;;5.00;1.00;;;;;;;;;;4936587;29;20028;-94
2021/08/07 01:46:13;;;;;;;2.95;1.38;;;;;;;;;;4937093;29;20028;-95
2021/08/07 01:48:48;;;;;;;3.15;1.58;;;;;;;;;;4936580;29;20031;-94
2021/08/07 01:51:16;;;;;;;3.25;1.70;;;;;;;;;;4936530;29;20059;-85
2021/08/07 01:53:44;;;;;;;5.00;2.00;;;;;;;;;;4937654;29;20038;-92
2021/08/07 01:56:19;;;;;;;9.00;2.13;;;;;;;;;;4938511;29;20122;-89
2021/08/07 01:58:47;;;;;;;4.72;2.10;;;;;;;;;;4937844;29;20028;-96
2021/08/07 02:01:15;;;;;;;3.78;2.25;;;;;;;;;;4936667;29;20204;-95
2021/08/07 02:03:43;;;;;;;4.60;2.08;;;;;;;;;;4936369;29;20035;-86
2021/08/07 02:06:09;;;;;;;3.67;2.22;;;;;;;;;;4936199;29;20032;-96
2021/08/07 02:08:36;;;;;;;4.82;1.98;;;;;;;;;;4936892;29;20032;-87
2021/08/07 02:11:04;;;;;;;4.30;2.10;;;;;;;;;;4938185;29;20067;-96
2021/08/07 02:13:30;;;;;;;5.72;2.10;;;;;;;;;;4937001;29;20036;-94
2021/08/07 02:15:57;;;;;;;6.22;1.75;;;;;;;;;;4936609;29;20055;-92
2021/08/07 02:18:25;;;;;;;5.05;1.85;;;;;;;;;;4938401;29;20086;-96
2021/08/07 02:20:52;;;;;;;3.42;2.03;;;;;;;;;;4942551;29;20110;-95
2021/08/07 02:23:19;;;;;;;4.30;2.08;;;;;;;;;;4940159;29;20023;-91
2021/08/07 02:25:48;;;;;;;3.60;2.25;;;;;;;;;;4946325;29;20091;-91
2021/08/07 02:28:14;;;;;;;8.63;2.40;;;;;;;;;;4940451;29;20481;-96
2021/08/07 02:30:41;;;;;;;4.13;1.80;;;;;;;;;;4936007;29;20059;-95
2021/08/07 02:33:08;;;;;;;3.10;2.10;;;;;;;;;;4937909;29;20039;-96
2021/08/07 02:35:44;;;;;;;2.92;1.63;;;;;;;;;;4951890;29;20035;-96
2021/08/07 02:38:11;;;;;;;3.65;2.03;;;;;;;;;;4949830;28;20032;-91
2021/08/07 02:40:38;;;;;;;3.92;1.80;;;;;;;;;;4953354;28;20063;-92
2021/08/07 02:43:05;;;;;;;5.78;1.70;;;;;;;;;;4941574;29;20035;-95
2021/08/07 02:45:31;;;;;;;4.13;1.90;;;;;;;;;;4943697;29;20028;-96
2021/08/07 02:47:58;;;;;;;5.30;1.80;;;;;;;;;;4939779;29;20032;-92
2021/08/07 02:50:24;;;;;;;6.57;1.90;;;;;;;;;;4942048;29;20024;-91
2021/08/07 02:52:51;;;;;;;4.82;1.90;;;;;;;;;;4947111;29;20035;-96
2021/08/07 02:55:17;;;;;;;6.25;1.65;;;;;;;;;;4942523;29;20036;-92
2021/08/07 02:57:43;;;;;;;6.38;1.85;;;;;;;;;;4947797;29;20127;-96
2021/08/07 03:00:10;;;;;;;4.50;1.55;;;;;;;;;;4947529;29;20473;-96
2021/08/07 03:02:36;;;;;;;2.72;1.50;;;;;;;;;;4944555;29;20019;-96
2021/08/07 03:05:25;;;;;;;5.47;1.50;;;;;;;;;;4949072;29;20032;-96
2021/08/07 03:07:51;;;;;;;5.32;2.00;;;;;;;;;;4950461;29;20469;-95
2021/08/07 03:10:18;;;;;;;8.05;2.13;;;;;;;;;;4939549;29;20046;-90
2021/08/07 03:12:44;;;;;;;3.03;1.80;;;;;;;;;;4940506;29;20047;-89
2021/08/07 03:15:11;;;;;;;3.42;1.77;;;;;;;;;;4945335;29;20048;-93
2021/08/07 03:17:38;;;;;;;3.67;1.80;;;;;;;;;;4942086;29;20532;-91
2021/08/07 03:20:05;;;;;;;5.13;1.90;;;;;;;;;;4943808;29;20055;-93
2021/08/07 03:22:31;;;;;;;3.17;1.48;;;;;;;;;;4939379;29;20051;-92
2021/08/07 03:24:57;;;;;;;3.80;1.77;;;;;;;;;;4939155;29;20123;-96
2021/08/07 03:27:23;;;;;;;5.63;1.40;;;;;;;;;;4939972;29;20034;-90
2021/08/07 03:29:50;;;;;;;7.60;1.65;;;;;;;;;;4942376;29;20059;-90
2021/08/07 03:32:16;;;;;;;3.08;1.55;;;;;;;;;;4942475;29;20127;-95
2021/08/07 03:34:42;;;;;;;3.90;1.70;;;;;;;;;;4948810;29;20032;-91
2021/08/07 03:37:09;;;;;;;3.10;1.70;;;;;;;;;;4952413;29;20046;-91
2021/08/07 03:39:35;;;;;;;4.55;1.23;;;;;;;;;;4941554;29;20031;-94
2021/08/07 03:42:01;;;;;;;6.82;1.55;;;;;;;;;;4942116;29;20055;-90
2021/08/07 03:44:27;;;;;;;3.17;1.45;;;;;;;;;;4943614;29;20012;-89
2021/08/07 03:46:54;;;;;;;4.63;1.80;;;;;;;;;;4940591;29;20392;-91
2021/08/07 03:49:20;;;;;;;4.43;1.55;;;;;;;;;;4949218;29;20035;-93
2021/08/07 03:51:46;;;;;;;2.33;1.45;;;;;;;;;;4942793;29;20453;-95
2021/08/07 03:54:12;;;;;;;2.80;1.40;;;;;;;;;;4939321;29;20019;-89
2021/08/07 03:56:39;;;;;;;2.33;1.33;;;;;;;;;;4940116;29;20145;-91
2021/08/07 03:59:05;;;;;;;4.90;1.33;;;;;;;;;;4940225;29;20030;-96
2021/08/07 04:01:31;;;;;;;2.28;1.27;;;;;;;;;;4940996;29;20110;-88
2021/08/07 04:03:57;;;;;;;4.18;1.42;;;;;;;;;;4937288;29;20028;-91
2021/08/07 04:06:23;;;;;;;11.52;1.58;;;;;;;;;;4938801;29;20435;-85
2021/08/07 04:08:49;;;;;;;2.20;1.40;;;;;;;;;;4937389;29;20024;-84
2021/08/07 04:11:16;;;;;;;2.80;1.10;;;;;;;;;;4938594;29;20040;-93
2021/08/07 04:13:42;;;;;;;2.72;1.33;;;;;;;;;;4938741;29;20035;-85
2021/08/07 04:16:08;;;;;;;2.20;1.40;;;;;;;;;;4937627;29;20035;-86
2021/08/07 04:18:37;;;;;;;5.00;1.33;;;;;;;;;;4938591;29;20102;-85
2021/08/07 04:21:03;;;;;;;5.60;1.20;;;;;;;;;;4937181;29;20441;-86
2021/08/07 04:23:29;;;;;;;2.88;1.30;;;;;;;;;;4937209;29;20024;-85
2021/08/07 04:25:55;;;;;;;3.13;1.40;;;;;;;;;;4940521;29;20099;-85
2021/08/07 04:28:21;;;;;;;4.32;1.42;;;;;;;;;;4938735;29;20036;-85
2021/08/07 04:30:48;;;;;;;2.22;1.30;;;;;;;;;;4937127;29;20393;-85
2021/08/07 04:33:14;;;;;;;3.00;1.67;;;;;;;;;;4937412;29;20496;-86
2021/08/07 04:35:40;;;;;;;6.57;2.10;;;;;;;;;;4937440;29;20028;-85
2021/08/07 04:38:06;;;;;;;3.42;1.75;;;;;;;;;;4937894;29;20377;-84
2021/08/07 04:40:32;;;;;;;6.65;1.85;;;;;;;;;;4941859;29;20027;-86
2021/08/07 04:42:59;;;;;;;3.75;1.92;;;;;;;;;;4939829;29;20036;-87
2021/08/07 04:45:25;;;;;;;6.35;2.30;;;;;;;;;;4938231;29;20477;-86
2021/08/07 04:47:55;;;;;;;3.90;1.63;;;;;;;;;;4946123;29;20036;-87
2021/08/07 04:50:22;;;;;;;6.40;1.60;;;;;;;;;;4936754;29;20024;-84
2021/08/07 04:52:48;;;;;;;2.92;1.73;;;;;;;;;;4936929;29;20036;-84
2021/08/07 04:55:14;;;;;;;4.70;1.40;;;;;;;;;;4939923;29;20028;-87
2021/08/07 04:57:41;;;;;;;2.28;1.13;;;;;;;;;;4942741;29;20071;-87
2021/08/07 05:00:07;;;;;;;2.80;1.20;;;;;;;;;;4942425;29;20440;-86
2021/08/07 05:02:33;;;;;;;2.88;1.02;;;;;;;;;;4936502;29;20032;-85
2021/08/07 05:05:00;;;;;;;2.10;0.63;;;;;;;;;;4936633;29;20027;-85
2021/08/07 05:07:26;;;;;;;4.40;0.82;;;;;;;;;;4937316;29;20064;-86
2021/08/07 05:09:52;;;;;;;2.38;1.00;;;;;;;;;;4936372;29;20039;-87
2021/08/07 05:12:18;;;;;;;1.50;0.60;;;;;;;;;;4936357;29;20035;-84
2021/08/07 05:14:44;;;;;;;1.80;0.70;;;;;;;;;;4936317;29;20036;-84
2021/08/07 05:17:10;;;;;;;3.30;0.63;;;;;;;;;;4937215;29;20032;-87
2021/08/07 05:19:36;;;;;;;1.15;0.55;;;;;;;;;;4936315;29;20023;-88
2021/08/07 05:22:02;;;;;;;0.75;0.40;;;;;;;;;;4937702;29;20366;-88
2021/08/07 05:24:29;;;;;;;1.30;0.65;;;;;;;;;;4936784;29;20075;-95
2021/08/07 05:26:55;;;;;;;1.40;0.57;;;;;;;;;;4937466;29;20038;-84
2021/08/07 05:29:21;;;;;;;1.05;0.40;;;;;;;;;;4939381;28;20103;-82
2021/08/07 05:31:47;;;;;;;1.63;0.40;;;;;;;;;;4937240;29;20039;-84
2021/08/07 05:34:13;;;;;;;2.20;0.50;;;;;;;;;;4935855;29;20070;-83
2021/08/07 05:36:39;;;;;;;1.17;0.57;;;;;;;;;;4935859;29;20038;-82
2021/08/07 05:39:05;;;;;;;1.00;0.50;;;;;;;;;;4936057;29;20437;-86
2021/08/07 05:41:31;;;;;;;2.00;0.90;;;;;;;;;;4935976;29;20031;-85
2021/08/07 05:43:57;;;;;;;3.65;0.60;;;;;;;;;;4939143;29;20054;-85
2021/08/07 05:46:24;;;;;;;1.35;0.70;;;;;;;;;;4939732;29;20059;-85
2021/08/07 05:49:02;;;;;;;1.33;0.60;;;;;;;;;;4952152;28;20019;-85
2021/08/07 05:51:29;;;;;;;1.70;0.70;;;;;;;;;;4939705;28;20056;-90
2021/08/07 05:53:56;;;;;;;2.00;0.90;;;;;;;;;;4937813;29;20115;-95
2021/08/07 05:56:22;;;;;;;3.58;1.17;;;;;;;;;;4936314;29;20035;-90
2021/08/07 05:58:48;;;;;;;6.55;1.13;;;;;;;;;;4937661;29;20400;-88
2021/08/07 06:01:15;;;;;;;4.68;1.30;;;;;;;;;;4936646;29;20031;-90
2021/08/07 06:03:41;;;;;;;2.03;1.00;;;;;;;;;;4936310;29;20432;-92
2021/08/07 06:06:07;;;;;;;3.40;1.25;;;;;;;;;;4936275;29;20031;-91
2021/08/07 06:08:34;;;;;;;3.92;1.17;;;;;;;;;;4936114;29;20034;-92
2021/08/07 06:11:00;;;;;;;3.42;1.20;;;;;;;;;;4935888;29;20040;-92
2021/08/07 06:13:27;;;;;;;2.50;1.15;;;;;;;;;;4937838;29;20469;-90
2021/08/07 06:15:53;;;;;;;2.38;1.20;;;;;;;;;;4936432;29;20493;-91
2021/08/07 06:18:21;;;;;;;2.55;1.15;;;;;;;;;;4938007;29;20457;-91
2021/08/07 06:20:47;;;;;;;2.65;1.23;;;;;;;;;;4936425;29;20034;-91
2021/08/07 06:23:13;;;;;;;3.55;1.10;;;;;;;;;;4937608;29;20036;-92
2021/08/07 06:25:39;;;;;;;3.08;1.35;;;;;;;;;;4936829;29;20082;-93
2021/08/07 06:28:06;;;;;;;1.92;0.80;;;;;;;;;;4935762;29;20031;-89
2021/08/07 06:31:00;;;;;;;5.80;1.23;;;;;;;;;;4939298;29;20027;-92
2021/08/07 06:33:47;;;;;;;2.10;0.95;;;;;;;;;;4886776;29;20037;-87
2021/08/07 06:36:26;;;;;;;3.70;0.93;;;;;;;;;;4889971;29;20066;-93
2021/08/07 06:39:07;;;;;;;3.08;0.88;;;;;;;;;;4930641;29;20036;-91
2021/08/07 06:41:34;;;;;;;2.80;1.10;;;;;;;;;;4935663;29;20031;-94
2021/08/07 06:44:00;;;;;;;4.60;1.38;;;;;;;;;;4936029;29;20067;-92
2021/08/07 06:46:26;;;;;;;6.57;1.10;;;;;;;;;;4937099;29;20098;-94
2021/08/07 06:48:52;;;;;;;2.05;0.90;;;;;;;;;;4936224;29;20024;-92
2021/08/07 06:51:18;;;;;;;2.38;0.90;;;;;;;;;;4935072;29;20060;-94
2021/08/07 06:53:46;;;;;;;2.20;0.85;;;;;;;;;;4935495;29;20408;-94
2021/08/07 06:56:12;;;;;;;1.98;0.98;;;;;;;;;;4935521;29;20038;-92
2021/08/07 06:58:38;;;;;;;2.42;0.90;;;;;;;;;;4936047;29;20028;-93
2021/08/07 07:01:04;;;;;;;1.92;0.70;;;;;;;;;;4935456;29;20039;-94
2021/08/07 07:03:30;;;;;;;2.92;1.05;;;;;;;;;;4935577;29;20034;-93
2021/08/07 07:05:56;;;;;;;2.72;1.10;;;;;;;;;;4936032;29;20035;-94
2021/08/07 07:08:22;;;;;;;1.42;0.90;;;;;;;;;;4935739;29;20066;-92
2021/08/07 07:10:49;;;;;;;2.92;1.10;;;;;;;;;;4935397;29;20158;-94
2021/08/07 07:13:15;;;;;;;2.88;0.90;;;;;;;;;;4935919;29;20039;-92
2021/08/07 07:15:41;;;;;;;2.72;0.98;;;;;;;;;;4935442;29;20024;-93
2021/08/07 07:18:07;;;;;;;1.85;0.90;;;;;;;;;;4935605;29;20036;-93
2021/08/07 07:20:34;;;;;;;4.28;1.02;;;;;;;;;;4936648;29;20123;-94
2021/08/07 07:23:00;;;;;;;3.53;1.20;;;;;;;;;;4935637;29;20028;-93
2021/08/07 07:25:26;;;;;;;3.92;1.10;;;;;;;;;;4935658;29;20489;-91
2021/08/07 07:27:52;;;;;;;2.75;0.93;;;;;;;;;;4935422;29;20023;-93
2021/08/07 07:30:18;;;;;;;2.63;1.02;;;;;;;;;;4935433;29;20028;-90
2021/08/07 07:32:45;;;;;;;3.47;1.30;;;;;;;;;;4935770;29;20389;-93
2021/08/07 07:35:11;;;;;;;3.72;1.00;;;;;;;;;;4935532;29;20429;-93
2021/08/07 07:37:37;;;;;;;1.65;0.90;;;;;;;;;;4936660;29;20389;-93
2021/08/07 07:40:04;;;;;;;3.38;0.88;;;;;;;;;;4939183;29;20362;-94
2021/08/07 07:42:30;;;;;;;2.53;1.00;;;;;;;;;;4939997;29;20038;-94
2021/08/07 07:44:56;;;;;;;1.85;0.98;;;;;;;;;;4939184;29;20047;-95
2021/08/07 07:47:22;;;;;;;2.78;1.15;;;;;;;;;;4940818;29;20032;-93
2021/08/07 07:49:48;;;;;;;1.65;0.70;;;;;;;;;;4939949;29;20055;-94
2021/08/07 07:52:15;;;;;;;4.65;1.00;;;;;;;;;;4939470;29;20059;-95
2021/08/07 07:54:41;;;;;;;2.22;0.90;;;;;;;;;;4939192;29;20024;-92
2021/08/07 07:57:07;;;;;;;3.35;0.90;;;;;;;;;;4939008;29;20035;-94
2021/08/07 07:59:33;;;;;;;1.95;0.80;;;;;;;;;;4938954;29;20075;-93
2021/08/07 08:02:02;;;;;;;3.30;0.80;;;;;;;;;;4940023;29;20042;-91
2021/08/07 08:04:32;;;;;;;3.03;0.50;;;;;;;;;;4938938;29;20111;-91
2021/08/07 08:07:00;;;;;;;1.98;0.98;;;;;;;;;;4939678;29;20024;-92
2021/08/07 08:09:26;;;;;;;3.40;0.90;;;;;;;;;;4940157;29;20020;-92
2021/08/07 08:11:52;;;;;;;3.22;0.80;;;;;;;;;;4939190;29;20042;-90
2021/08/07 08:14:18;;;;;;;2.33;0.70;;;;;;;;;;4938387;29;20024;-92
2021/08/07 08:16:45;;;;;;;1.58;0.80;;;;;;;;;;4938960;29;20399;-94
2021/08/07 08:19:12;;;;;;;7.40;1.02;;;;;;;;;;4939114;29;20028;-86
2021/08/07 08:21:38;;;;;;;1.65;0.60;;;;;;;;;;4939446;29;20428;-96
2021/08/07 08:24:05;;;;;;;6.68;0.70;;;;;;;;;;4939583;29;20028;-94
2021/08/07 08:26:31;;;;;;;1.40;0.70;;;;;;;;;;4938494;29;20063;-93
2021/08/07 08:28:57;;;;;;;2.63;1.20;;;;;;;;;;4940422;29;20028;-90
2021/08/07 08:31:23;;;;;;;1.30;0.73;;;;;;;;;;4940748;29;20111;-94
2021/08/07 08:33:49;;;;;;;2.53;0.95;;;;;;;;;;4939272;29;20034;-96
2021/08/07 08:36:15;;;;;;;2.90;0.60;;;;;;;;;;4941257;29;20028;-93
2021/08/07 08:38:43;;;;;;;1.63;0.55;;;;;;;;;;4940308;29;20075;-94
2021/08/07 08:41:09;;;;;;;1.00;0.50;;;;;;;;;;4940533;29;20421;-95
2021/08/07 08:43:35;;;;;;;1.33;0.65;;;;;;;;;;4938852;29;20055;-96
2021/08/07 08:46:02;;;;;;;6.93;0.88;;;;;;;;;;4940276;29;20055;-94
2021/08/07 08:48:30;;;;;;;1.02;0.52;;;;;;;;;;4938344;29;20038;-94
2021/08/07 08:50:57;;;;;;;4.10;0.80;;;;;;;;;;4937600;29;20066;-93
2021/08/07 08:53:23;;;;;;;1.70;0.70;;;;;;;;;;4937930;29;20038;-94
2021/08/07 08:55:49;;;;;;;1.85;0.85;;;;;;;;;;4937935;29;20028;-93
2021/08/07 08:58:17;;;;;;;4.63;0.57;;;;;;;;;;4938208;29;20051;-94
2021/08/07 09:00:43;;;;;;;3.22;1.00;;;;;;;;;;4940869;29;20476;-94
2021/08/07 09:03:09;;;;;;;2.53;0.57;;;;;;;;;;4940606;29;20075;-96
2021/08/07 09:05:35;;;;;;;1.48;0.60;;;;;;;;;;4940444;29;20063;-92
2021/08/07 09:08:01;;;;;;;1.25;0.60;;;;;;;;;;4944959;29;20038;-96
2021/08/07 09:10:28;;;;;;;2.58;0.47;;;;;;;;;;4945778;29;20118;-95
2021/08/07 09:12:56;;;;;;;5.50;0.43;;;;;;;;;;4937983;29;20039;-94
2021/08/07 09:15:28;;;;;;;0.90;0.40;;;;;;;;;;4938445;29;20027;-92
2021/08/07 09:18:13;;;;;;;6.88;0.57;;;;;;;;;;4937494;29;20042;-90
2021/08/07 09:20:41;;;;;;;1.17;0.47;;;;;;;;;;4938280;28;20035;-89
2021/08/07 09:23:07;;;;;;;1.30;0.43;;;;;;;;;;4937194;29;20099;-89
2021/08/07 09:25:37;;;;;;;1.10;0.43;;;;;;;;;;4936646;29;20025;-92
2021/08/07 09:28:03;;;;;;;3.45;0.57;;;;;;;;;;4937684;29;20036;-88
2021/08/07 09:30:32;;;;;;;2.70;0.43;;;;;;;;;;4937039;29;20032;-92
2021/08/07 09:33:00;;;;;;;3.10;0.52;;;;;;;;;;4937683;29;20045;-90
2021/08/07 09:35:26;;;;;;;3.60;0.70;;;;;;;;;;4938404;29;20482;-89
2021/08/07 09:38:06;;;;;;;1.48;0.60;;;;;;;;;;4939898;29;20031;-90
2021/08/07 09:40:43;;;;;;;1.15;0.47;;;;;;;;;;4938850;29;20035;-93
2021/08/07 09:43:09;;;;;;;1.30;0.50;;;;;;;;;;4938407;29;20039;-95
2021/08/07 09:45:35;;;;;;;1.30;0.73;;;;;;;;;;4937048;29;20034;-91
2021/08/07 09:48:03;;;;;;;1.38;0.60;;;;;;;;;;4936879;29;20042;-94
2021/08/07 09:50:31;;;;;;;1.48;0.80;;;;;;;;;;4936985;29;20146;-91
2021/08/07 09:52:58;;;;;;;1.95;0.70;;;;;;;;;;4936657;29;20119;-91
2021/08/07 09:55:25;;;;;;;1.85;0.60;;;;;;;;;;4936692;29;20039;-89
2021/08/07 09:58:01;;;;;;;1.48;0.68;;;;;;;;;;4936590;29;20074;-92
2021/08/07 10:00:33;;;;;;;6.13;0.70;;;;;;;;;;4936386;29;20039;-92
2021/08/07 10:03:15;;;;;;;1.27;0.60;;;;;;;;;;4937718;29;20031;-88
2021/08/07 10:05:41;;;;;;;4.95;0.63;;;;;;;;;;4937185;29;20465;-91
2021/08/07 10:08:07;;;;;;;1.83;0.68;;;;;;;;;;4936477;29;20031;-91
2021/08/07 10:10:35;;;;;;;7.20;0.60;;;;;;;;;;4939231;29;20028;-96
2021/08/07 10:13:01;;;;;;;1.85;0.70;;;;;;;;;;4921621;29;20043;-90
2021/08/07 10:15:28;;;;;;;1.65;0.50;;;;;;;;;;4936613;29;20078;-89
2021/08/07 10:17:55;;;;;;;1.63;0.70;;;;;;;;;;4938737;29;20039;-88
2021/08/07 10:20:22;;;;;;;4.35;0.82;;;;;;;;;;4937347;29;20461;-90
2021/08/07 10:22:50;;;;;;;6.22;0.70;;;;;;;;;;4936975;29;20024;-91
2021/08/07 10:25:16;;;;;;;1.23;0.50;;;;;;;;;;4936215;29;20031;-90
2021/08/07 10:27:43;;;;;;;1.98;0.60;;;;;;;;;;4936900;29;20026;-91
2021/08/07 10:30:11;;;;;;;1.38;0.50;;;;;;;;;;4953390;29;20042;-91
2021/08/07 10:32:42;;;;;;;1.25;0.47;;;;;;;;;;4950926;29;20067;-87
2021/08/07 10:35:10;;;;;;;1.15;0.47;;;;;;;;;;4936211;29;20496;-89
2021/08/07 10:37:36;;;;;;;1.92;0.63;;;;;;;;;;4935404;29;20046;-87
2021/08/07 10:40:03;;;;;;;2.45;0.57;;;;;;;;;;4936164;29;20500;-89
2021/08/07 10:42:32;;;;;;;1.85;0.57;;;;;;;;;;4936690;29;20034;-90
2021/08/07 10:44:58;;;;;;;1.08;0.40;;;;;;;;;;4935374;29;20238;-90
2021/08/07 10:47:38;;;;;;;1.02;0.50;;;;;;;;;;4935286;29;20032;-88
2021/08/07 10:50:22;;;;;;;1.83;0.68;;;;;;;;;;4935099;29;20034;-90
2021/08/07 10:52:48;;;;;;;1.98;0.68;;;;;;;;;;4935752;29;20043;-91
2021/08/07 10:55:33;;;;;;;1.30;0.50;;;;;;;;;;4935465;29;20031;-89
2021/08/07 10:57:59;;;;;;;2.72;0.45;;;;;;;;;;4934747;29;20039;-90
2021/08/07 11:00:25;;;;;;;1.33;0.60;;;;;;;;;;4935273;29;20028;-89
2021/08/07 11:03:11;;;;;;;3.17;0.60;;;;;;;;;;4936156;29;20099;-92
2021/08/07 11:05:49;;;;;;;2.20;0.65;;;;;;;;;;4935090;29;20362;-90
2021/08/07 11:08:19;;;;;;;1.52;0.70;;;;;;;;;;4936685;29;20111;-92
2021/08/07 11:10:47;;;;;;;2.47;0.70;;;;;;;;;;4936764;29;20036;-88
2021/08/07 11:13:31;;;;;;;1.75;0.60;;;;;;;;;;4938749;29;20043;-86
2021/08/07 11:16:16;;;;;;;1.35;0.50;;;;;;;;;;4939946;29;20051;-86
2021/08/07 11:18:43;;;;;;;1.80;0.60;;;;;;;;;;4938597;29;20528;-90
2021/08/07 11:21:29;;;;;;;1.27;0.60;;;;;;;;;;4939719;29;20096;-88
2021/08/07 11:23:55;;;;;;;1.73;0.77;;;;;;;;;;4938472;29;20036;-86
2021/08/07 11:26:41;;;;;;;2.13;0.90;;;;;;;;;;4939535;29;20563;-88
2021/08/07 11:29:08;;;;;;;4.93;0.90;;;;;;;;;;4938259;29;20445;-87
2021/08/07 11:31:34;;;;;;;5.10;0.98;;;;;;;;;;4938195;29;20035;-86
2021/08/07 11:34:20;;;;;;;3.67;0.85;;;;;;;;;;4939461;29;20473;-88
2021/08/07 11:37:05;;;;;;;1.80;1.00;;;;;;;;;;4939035;29;20042;-89
2021/08/07 11:39:49;;;;;;;1.88;1.00;;;;;;;;;;4938987;29;20023;-86
2021/08/07 11:42:35;;;;;;;3.22;1.02;;;;;;;;;;4938434;29;20038;-88
2021/08/07 11:45:01;;;;;;;5.50;1.20;;;;;;;;;;4938505;29;20031;-89
2021/08/07 11:47:28;;;;;;;4.30;1.00;;;;;;;;;;4938978;29;20035;-92
2021/08/07 11:49:56;;;;;;;4.03;1.33;;;;;;;;;;4939469;29;20036;-85
2021/08/07 11:52:28;;;;;;;1.70;0.73;;;;;;;;;;4937996;29;20062;-87
2021/08/07 11:54:54;;;;;;;7.23;1.30;;;;;;;;;;4938018;29;20031;-88
2021/08/07 11:57:22;;;;;;;5.32;1.00;;;;;;;;;;4939651;29;20035;-90
2021/08/07 11:59:48;;;;;;;1.83;0.77;;;;;;;;;;4939119;29;20078;-91
2021/08/07 12:02:15;;;;;;;1.33;0.80;;;;;;;;;;4939516;29;20062;-91
2021/08/07 12:04:41;;;;;;;2.85;0.70;;;;;;;;;;4938250;29;20043;-90
2021/08/07 12:07:15;;;;;;;1.80;0.70;;;;;;;;;;4938044;29;20024;-89
2021/08/07 12:10:00;;;;;;;2.05;0.65;;;;;;;;;;4937849;29;20071;-88
2021/08/07 12:12:26;;;;;;;2.00;0.98;;;;;;;;;;4937726;29;20556;-90
2021/08/07 12:14:53;;;;;;;4.80;0.70;;;;;;;;;;4938146;29;20019;-90
2021/08/07 12:17:19;;;;;;;2.58;0.90;;;;;;;;;;4937752;29;20035;-88
2021/08/07 12:19:45;;;;;;;1.45;0.68;;;;;;;;;;4938276;29;20448;-89
2021/08/07 12:22:12;;;;;;;1.80;0.70;;;;;;;;;;4937353;29;20031;-88
2021/08/07 12:24:38;;;;;;;2.03;0.90;;;;;;;;;;4936933;29;20032;-87
2021/08/07 12:27:04;;;;;;;2.90;0.68;;;;;;;;;;4938628;29;20082;-88
2021/08/07 12:29:31;;;;;;;1.70;0.82;;;;;;;;;;4937465;29;20055;-87
2021/08/07 12:32:04;;;;;;;5.82;0.68;;;;;;;;;;4937177;29;20091;-89
2021/08/07 12:34:35;;;;;;;8.52;0.95;;;;;;;;;;4937634;29;20058;-89
2021/08/07 12:37:03;;;;;;;2.65;1.00;;;;;;;;;;4937322;29;20396;-87
2021/08/07 12:39:37;;;;;;;8.85;1.00;;;;;;;;;;4940176;29;20020;-88
2021/08/07 12:42:03;;;;;;;1.63;0.82;;;;;;;;;;4938624;29;20027;-88
2021/08/07 12:44:30;;;;;;;3.10;1.00;;;;;;;;;;4939755;29;20028;-87
2021/08/07 12:46:56;;;;;;;1.40;0.70;;;;;;;;;;4953120;29;20028;-85
2021/08/07 12:49:40;;;;;;;2.65;1.00;;;;;;;;;;4938130;29;20028;-86
2021/08/07 12:52:06;;;;;;;2.05;0.93;;;;;;;;;;4936771;29;20135;-89
2021/08/07 12:54:32;;;;;;;2.45;0.80;;;;;;;;;;4940942;29;20028;-86
2021/08/07 12:56:58;;;;;;;2.60;0.98;;;;;;;;;;4939074;29;20051;-88
2021/08/07 12:59:25;;;;;;;4.55;1.35;;;;;;;;;;4939828;29;20028;-87
2021/08/07 13:02:01;;;;;;;2.28;0.80;;;;;;;;;;4939336;29;20539;-89
2021/08/07 13:04:41;;;;;;;2.97;1.02;;;;;;;;;;4936448;29;20020;-89
2021/08/07 13:07:08;;;;;;;3.05;1.02;;;;;;;;;;4936656;29;20393;-90
2021/08/07 13:09:35;;;;;;;2.47;1.10;;;;;;;;;;4936755;29;20032;-88
2021/08/07 13:12:05;;;;;;;5.20;1.08;;;;;;;;;;4936642;29;20100;-87
2021/08/07 13:14:31;;;;;;;2.55;1.00;;;;;;;;;;4936707;29;20062;-88
2021/08/07 13:16:57;;;;;;;2.05;0.80;;;;;;;;;;4936424;29;20094;-89
2021/08/07 13:19:31;;;;;;;2.28;0.80;;;;;;;;;;4936182;29;20023;-88
2021/08/07 13:22:21;;;;;;;3.90;1.08;;;;;;;;;;4937727;29;20437;-89
2021/08/07 13:24:58;;;;;;;2.25;1.00;;;;;;;;;;4936369;29;20031;-88
2021/08/07 13:27:41;;;;;;;2.30;1.00;;;;;;;;;;4936595;29;20059;-88
2021/08/07 13:30:13;;;;;;;6.15;1.10;;;;;;;;;;4936335;29;20087;-90
2021/08/07 13:32:40;;;;;;;2.03;0.98;;;;;;;;;;4938152;29;20393;-88
2021/08/07 13:35:16;;;;;;;2.67;0.95;;;;;;;;;;4935748;29;20408;-86
2021/08/07 13:37:43;;;;;;;2.72;1.10;;;;;;;;;;4936378;29;20050;-86
2021/08/07 13:40:10;;;;;;;1.75;1.10;;;;;;;;;;4936146;29;20437;-85
2021/08/07 13:42:38;;;;;;;3.42;1.02;;;;;;;;;;4936119;29;20086;-86
2021/08/07 13:45:05;;;;;;;2.08;0.98;;;;;;;;;;4938210;29;20027;-87
2021/08/07 13:47:31;;;;;;;1.83;0.80;;;;;;;;;;4936289;29;20118;-86
2021/08/07 13:49:57;;;;;;;1.70;0.90;;;;;;;;;;4936122;29;20027;-85
2021/08/07 13:52:23;;;;;;;2.20;0.88;;;;;;;;;;4936281;29;20357;-85
2021/08/07 13:54:50;;;;;;;1.48;0.90;;;;;;;;;;4946952;29;20035;-89
2021/08/07 13:57:16;;;;;;;3.67;1.17;;;;;;;;;;4935922;29;20124;-87
2021/08/07 13:59:42;;;;;;;1.65;0.90;;;;;;;;;;4936411;29;20035;-88
2021/08/07 14:02:12;;;;;;;6.03;1.10;;;;;;;;;;4943526;29;20102;-87
2021/08/07 14:04:38;;;;;;;2.58;1.10;;;;;;;;;;4938222;29;20027;-87
2021/08/07 14:07:05;;;;;;;10.95;1.30;;;;;;;;;;4936619;29;20034;-88
2021/08/07 14:09:31;;;;;;;2.50;1.40;;;;;;;;;;4937538;29;20115;-87
2021/08/07 14:11:57;;;;;;;4.97;1.23;;;;;;;;;;4936437;29;20032;-87
2021/08/07 14:14:24;;;;;;;1.70;0.90;;;;;;;;;;4935818;29;20032;-87
2021/08/07 14:16:51;;;;;;;4.07;1.20;;;;;;;;;;4935539;29;20091;-88
2021/08/07 14:19:18;;;;;;;7.22;1.50;;;;;;;;;;4937199;29;20059;-90
2021/08/07 14:21:45;;;;;;;4.03;1.15;;;;;;;;;;4935882;29;20039;-86
2021/08/07 14:24:14;;;;;;;5.53;1.23;;;;;;;;;;4936014;29;20066;-86
2021/08/07 14:26:40;;;;;;;2.90;1.15;;;;;;;;;;4937208;29;20381;-86
2021/08/07 14:29:07;;;;;;;4.07;1.17;;;;;;;;;;4936552;29;20034;-87
2021/08/07 14:31:34;;;;;;;1.90;1.00;;;;;;;;;;4935672;29;20036;-87
2021/08/07 14:34:00;;;;;;;2.55;1.20;;;;;;;;;;4935243;29;20031;-88
2021/08/07 14:36:26;;;;;;;1.95;1.00;;;;;;;;;;4935028;29;20130;-86
2021/08/07 14:38:52;;;;;;;2.30;1.17;;;;;;;;;;4935209;29;20516;-87
2021/08/07 14:41:18;;;;;;;3.03;1.10;;;;;;;;;;4934966;29;20508;-87
2021/08/07 14:43:46;;;;;;;2.20;1.25;;;;;;;;;;4935278;29;20028;-88
2021/08/07 14:46:12;;;;;;;2.78;1.35;;;;;;;;;;4935645;29;20024;-89
2021/08/07 14:48:38;;;;;;;2.10;1.20;;;;;;;;;;4938984;29;20039;-88